Time;durP1;ratioP1;P1;durP2;ratioP2;P2;SDS_P1;SDS_P2;PMS_P1;PMS_P2;Temp;Humidity;BMP_temperature;BMP_pressure;BME280_temperature;BME280_humidity;BME280_pressure;Samples;Min_cycle;Max_cycle;Signal;HPM_P1;HPM_P2
2022/09/06 00:01:00;;;;;;;;;7.00;7.00;;;;;;;;5086814;27;51181;-58
2022/09/06 00:03:28;;;;;;;;;6.33;6.33;;;;;;;;5080552;27;51153;-58
2022/09/06 00:05:53;;;;;;;;;7.00;6.33;;;;;;;;5075563;27;51282;-58
2022/09/06 00:08:19;;;;;;;;;4.67;4.00;;;;;;;;5074201;27;51163;-58
2022/09/06 00:10:44;;;;;;;;;7.67;7.00;;;;;;;;5077542;27;52167;-58
2022/09/06 00:13:10;;;;;;;;;6.00;5.67;;;;;;;;5072308;27;51092;-58
2022/09/06 00:15:35;;;;;;;;;4.00;4.00;;;;;;;;5080326;27;51038;-58
2022/09/06 00:18:01;;;;;;;;;5.00;5.00;;;;;;;;5079323;27;51198;-58
2022/09/06 00:20:27;;;;;;;;;7.67;6.67;;;;;;;;5072393;27;53208;-58
2022/09/06 00:22:57;;;;;;;;;5.00;5.00;;;;;;;;5081770;27;51181;-58
2022/09/06 00:25:22;;;;;;;;;6.00;6.00;;;;;;;;5082033;27;51320;-58
2022/09/06 00:27:51;;;;;;;;;5.67;5.00;;;;;;;;5075050;27;51698;-58
2022/09/06 00:30:17;;;;;;;;;5.00;5.00;;;;;;;;5075809;27;51272;-58
2022/09/06 00:32:42;;;;;;;;;5.67;5.33;;;;;;;;5076703;27;51041;-58
2022/09/06 00:35:07;;;;;;;;;5.33;5.33;;;;;;;;5078201;27;51162;-58
2022/09/06 00:37:32;;;;;;;;;5.33;4.67;;;;;;;;5088983;27;51261;-58
2022/09/06 00:39:57;;;;;;;;;5.33;5.33;;;;;;;;5079152;27;51934;-58
2022/09/06 00:42:23;;;;;;;;;6.33;5.33;;;;;;;;5085293;27;50938;-58
2022/09/06 00:44:48;;;;;;;;;5.33;5.33;;;;;;;;5090612;27;51021;-58
2022/09/06 00:47:14;;;;;;;;;6.00;6.00;;;;;;;;5078616;27;51006;-58
2022/09/06 00:49:43;;;;;;;;;7.00;6.00;;;;;;;;5078262;27;51175;-57
2022/09/06 00:52:14;;;;;;;;;5.67;5.00;;;;;;;;5083250;27;51077;-58
2022/09/06 00:54:40;;;;;;;;;5.67;5.00;;;;;;;;5084196;27;51054;-58
2022/09/06 00:57:05;;;;;;;;;6.33;5.33;;;;;;;;5074434;27;51267;-57
2022/09/06 00:59:32;;;;;;;;;6.00;6.00;;;;;;;;5081038;27;52926;-58
2022/09/06 01:01:57;;;;;;;;;7.00;7.00;;;;;;;;5088089;27;51417;-59
2022/09/06 01:04:23;;;;;;;;;7.33;7.33;;;;;;;;5082485;27;51071;-59
2022/09/06 01:06:55;;;;;;;;;6.33;6.33;;;;;;;;5084349;27;51164;-58
2022/09/06 01:09:39;;;;;;;;;8.00;7.33;;;;;;;;5078157;27;51968;-58
2022/09/06 01:12:04;;;;;;;;;7.00;7.00;;;;;;;;5088116;27;51071;-59
2022/09/06 01:14:57;;;;;;;;;5.67;5.67;;;;;;;;5083994;27;51019;-58
2022/09/06 01:17:40;;;;;;;;;7.00;6.33;;;;;;;;5084014;27;51345;-58
2022/09/06 01:20:08;;;;;;;;;7.00;7.00;;;;;;;;5073600;27;52986;-58
2022/09/06 01:22:34;;;;;;;;;6.33;6.00;;;;;;;;5074972;27;51042;-59
2022/09/06 01:25:14;;;;;;;;;7.00;6.67;;;;;;;;5083164;27;51451;-58
2022/09/06 01:27:39;;;;;;;;;6.00;6.00;;;;;;;;5078314;27;51087;-58
2022/09/06 01:30:05;;;;;;;;;7.67;6.33;;;;;;;;5078017;27;51815;-57
2022/09/06 01:32:39;;;;;;;;;7.00;6.67;;;;;;;;5077634;27;50913;-57
2022/09/06 01:35:07;;;;;;;;;7.33;7.00;;;;;;;;5082060;27;50999;-58
2022/09/06 01:37:32;;;;;;;;;7.67;7.67;;;;;;;;5087407;27;51322;-57
2022/09/06 01:39:58;;;;;;;;;7.00;7.00;;;;;;;;5076980;27;53871;-58
2022/09/06 01:42:28;;;;;;;;;7.00;6.00;;;;;;;;5074564;27;50925;-58
2022/09/06 01:45:00;;;;;;;;;6.67;6.33;;;;;;;;5074106;27;51120;-58
2022/09/06 01:47:31;;;;;;;;;8.00;7.00;;;;;;;;5073984;27;51276;-58
2022/09/06 01:49:59;;;;;;;;;7.00;7.00;;;;;;;;5078060;27;51123;-58
2022/09/06 01:52:27;;;;;;;;;7.00;7.00;;;;;;;;5087039;27;51011;-57
2022/09/06 01:54:52;;;;;;;;;7.00;7.00;;;;;;;;5086929;27;51865;-57
2022/09/06 01:57:30;;;;;;;;;6.67;6.00;;;;;;;;5082665;27;51096;-57
2022/09/06 02:00:08;;;;;;;;;8.00;8.00;;;;;;;;5078967;27;51347;-57
2022/09/06 02:02:48;;;;;;;;;8.00;7.33;;;;;;;;5085641;27;51106;-57
2022/09/06 02:05:16;;;;;;;;;7.00;7.00;;;;;;;;5083035;27;51115;-58
2022/09/06 02:07:42;;;;;;;;;8.67;8.00;;;;;;;;5080486;27;51208;-58
2022/09/06 02:10:11;;;;;;;;;8.00;8.00;;;;;;;;5084072;27;53149;-57
2022/09/06 02:12:38;;;;;;;;;8.00;8.00;;;;;;;;5085423;27;51242;-58
2022/09/06 02:15:12;;;;;;;;;9.33;8.00;;;;;;;;5078696;27;51277;-58
2022/09/06 02:17:48;;;;;;;;;8.67;8.67;;;;;;;;5085113;27;51196;-58
2022/09/06 02:20:22;;;;;;;;;8.00;8.00;;;;;;;;5078061;27;52268;-58
2022/09/06 02:22:49;;;;;;;;;9.33;8.33;;;;;;;;5078125;27;51209;-58
2022/09/06 02:25:19;;;;;;;;;8.33;8.00;;;;;;;;5081138;27;51258;-57
2022/09/06 02:27:44;;;;;;;;;9.00;8.00;;;;;;;;5077303;27;51192;-58
2022/09/06 02:30:10;;;;;;;;;8.33;8.33;;;;;;;;5080242;27;53283;-59
2022/09/06 02:32:42;;;;;;;;;10.00;9.67;;;;;;;;5080442;27;51146;-58
2022/09/06 02:35:10;;;;;;;;;8.67;8.00;;;;;;;;5079243;27;51028;-58
2022/09/06 02:37:35;;;;;;;;;9.33;8.33;;;;;;;;5083360;27;51165;-59
2022/09/06 02:40:01;;;;;;;;;7.67;7.67;;;;;;;;5083542;27;51332;-59
2022/09/06 02:42:26;;;;;;;;;8.00;8.00;;;;;;;;5081481;27;51127;-59
2022/09/06 02:44:51;;;;;;;;;9.33;9.33;;;;;;;;5078165;27;51445;-59
2022/09/06 02:47:17;;;;;;;;;8.67;8.67;;;;;;;;5080849;27;51586;-56
2022/09/06 02:49:42;;;;;;;;;7.67;7.33;;;;;;;;5077609;27;52140;-57
2022/09/06 02:52:07;;;;;;;;;9.00;9.00;;;;;;;;5081778;27;51157;-58
2022/09/06 02:54:32;;;;;;;;;8.33;8.33;;;;;;;;5079268;27;52191;-59
2022/09/06 02:56:57;;;;;;;;;11.00;10.33;;;;;;;;5079238;27;51895;-58
2022/09/06 02:59:23;;;;;;;;;8.00;8.00;;;;;;;;5081339;27;52385;-58
2022/09/06 03:01:48;;;;;;;;;9.50;9.50;;;;;;;;5075814;27;51975;-59
2022/09/06 03:04:13;;;;;;;;;10.00;9.33;;;;;;;;5074401;27;52012;-58
2022/09/06 03:06:39;;;;;;;;;12.67;10.00;;;;;;;;5078117;27;51134;-58
2022/09/06 03:09:04;;;;;;;;;9.00;9.00;;;;;;;;5072700;27;50998;-59
2022/09/06 03:11:29;;;;;;;;;10.00;9.00;;;;;;;;5091383;27;50909;-59
2022/09/06 03:13:54;;;;;;;;;8.00;7.67;;;;;;;;5085200;27;51041;-59
2022/09/06 03:16:19;;;;;;;;;8.67;8.00;;;;;;;;5072951;27;51243;-59
2022/09/06 03:18:45;;;;;;;;;9.33;9.33;;;;;;;;5082598;27;52108;-59
2022/09/06 03:21:11;;;;;;;;;11.33;9.33;;;;;;;;5079704;27;51054;-59
2022/09/06 03:23:38;;;;;;;;;11.00;10.00;;;;;;;;5080838;27;51137;-59
2022/09/06 03:26:03;;;;;;;;;9.33;9.33;;;;;;;;5090179;27;51170;-58
2022/09/06 03:28:29;;;;;;;;;9.67;9.00;;;;;;;;5075966;27;51226;-58
2022/09/06 03:30:54;;;;;;;;;10.33;9.00;;;;;;;;5072797;27;51245;-58
2022/09/06 03:33:19;;;;;;;;;11.33;10.33;;;;;;;;5070152;27;51469;-58
2022/09/06 03:35:52;;;;;;;;;8.33;8.00;;;;;;;;5086390;27;51498;-58
2022/09/06 03:38:18;;;;;;;;;9.00;9.00;;;;;;;;5076990;27;52246;-58
2022/09/06 03:40:44;;;;;;;;;10.67;10.00;;;;;;;;5081322;27;51180;-59
2022/09/06 03:43:09;;;;;;;;;9.00;9.00;;;;;;;;5088654;27;51365;-58
2022/09/06 03:45:34;;;;;;;;;11.00;10.00;;;;;;;;5086668;27;51199;-58
2022/09/06 03:48:00;;;;;;;;;9.00;9.00;;;;;;;;5084863;27;51064;-58
2022/09/06 03:50:25;;;;;;;;;9.33;9.33;;;;;;;;5076948;27;51254;-59
2022/09/06 03:52:50;;;;;;;;;7.67;7.67;;;;;;;;5081326;27;51188;-59
2022/09/06 03:55:15;;;;;;;;;10.00;10.00;;;;;;;;5084850;27;51363;-60
2022/09/06 03:57:40;;;;;;;;;11.00;9.67;;;;;;;;5073752;27;51905;-58
2022/09/06 04:00:06;;;;;;;;;10.00;9.67;;;;;;;;5088893;27;51006;-58
2022/09/06 04:02:31;;;;;;;;;9.00;9.00;;;;;;;;5088581;27;50984;-58
2022/09/06 04:04:56;;;;;;;;;9.33;9.33;;;;;;;;5081203;27;51286;-58
2022/09/06 04:07:22;;;;;;;;;12.67;9.67;;;;;;;;5083630;27;52118;-58
2022/09/06 04:09:47;;;;;;;;;11.67;11.33;;;;;;;;5089930;27;51375;-59
2022/09/06 04:12:12;;;;;;;;;10.00;10.00;;;;;;;;5092786;27;51020;-58
2022/09/06 04:14:37;;;;;;;;;10.67;10.00;;;;;;;;5080355;27;51274;-58
2022/09/06 04:17:03;;;;;;;;;11.00;10.67;;;;;;;;5080079;27;52240;-59
2022/09/06 04:19:28;;;;;;;;;9.00;9.00;;;;;;;;5079603;27;51163;-60
2022/09/06 04:21:53;;;;;;;;;9.00;9.00;;;;;;;;5081351;27;51106;-59
2022/09/06 04:24:18;;;;;;;;;9.00;8.00;;;;;;;;5083481;27;51041;-57
2022/09/06 04:26:44;;;;;;;;;10.00;10.00;;;;;;;;5081562;27;51335;-57
2022/09/06 04:29:09;;;;;;;;;9.00;8.00;;;;;;;;5076695;27;51871;-58
2022/09/06 04:31:34;;;;;;;;;9.33;9.00;;;;;;;;5075161;27;51233;-58
2022/09/06 04:33:59;;;;;;;;;10.00;9.67;;;;;;;;5071608;27;51320;-57
2022/09/06 04:36:25;;;;;;;;;10.67;9.33;;;;;;;;5080741;27;52986;-57
2022/09/06 04:38:50;;;;;;;;;9.00;8.00;;;;;;;;5080555;27;50934;-57
2022/09/06 04:41:16;;;;;;;;;9.00;8.67;;;;;;;;5076427;27;52680;-58
2022/09/06 04:43:41;;;;;;;;;10.67;10.67;;;;;;;;5077291;27;51221;-57
2022/09/06 04:46:22;;;;;;;;;10.00;10.00;;;;;;;;5075036;27;51365;-61
2022/09/06 04:48:48;;;;;;;;;11.00;10.00;;;;;;;;5075721;27;50985;-57
2022/09/06 04:51:13;;;;;;;;;9.67;9.67;;;;;;;;5076034;27;51056;-57
2022/09/06 04:53:38;;;;;;;;;7.00;7.00;;;;;;;;5086718;27;51385;-58
2022/09/06 04:56:04;;;;;;;;;11.00;11.00;;;;;;;;5085509;27;51169;-58
2022/09/06 04:58:29;;;;;;;;;12.33;12.33;;;;;;;;5085881;27;51083;-58
2022/09/06 05:00:54;;;;;;;;;12.67;11.67;;;;;;;;5087161;27;51190;-58
2022/09/06 05:03:20;;;;;;;;;9.00;8.33;;;;;;;;5091628;27;51301;-58
2022/09/06 05:05:45;;;;;;;;;8.67;8.67;;;;;;;;5084591;27;52347;-57
2022/09/06 05:08:10;;;;;;;;;10.33;10.33;;;;;;;;5089757;27;50999;-58
2022/09/06 05:10:36;;;;;;;;;10.67;10.33;;;;;;;;5086680;27;51101;-57
2022/09/06 05:13:01;;;;;;;;;8.67;8.33;;;;;;;;5079844;27;50881;-58
2022/09/06 05:15:26;;;;;;;;;11.33;11.33;;;;;;;;5089160;27;51237;-58
2022/09/06 05:17:51;;;;;;;;;9.67;9.33;;;;;;;;5082864;27;51021;-57
2022/09/06 05:20:17;;;;;;;;;9.00;9.00;;;;;;;;5084264;27;51177;-57
2022/09/06 05:22:42;;;;;;;;;10.00;8.33;;;;;;;;5086345;27;51382;-57
2022/09/06 05:25:08;;;;;;;;;9.00;8.67;;;;;;;;5079647;27;51121;-58
2022/09/06 05:27:33;;;;;;;;;9.33;9.00;;;;;;;;5077055;27;51223;-58
2022/09/06 05:29:59;;;;;;;;;8.00;8.00;;;;;;;;5085175;27;51051;-58
2022/09/06 05:32:24;;;;;;;;;8.00;8.00;;;;;;;;5081635;27;51745;-58
2022/09/06 05:34:49;;;;;;;;;8.33;8.33;;;;;;;;5088088;27;51008;-57
2022/09/06 05:37:14;;;;;;;;;7.00;7.00;;;;;;;;5085776;27;51046;-57
2022/09/06 05:39:39;;;;;;;;;8.67;8.67;;;;;;;;5085832;27;51110;-58
2022/09/06 05:42:05;;;;;;;;;11.67;10.00;;;;;;;;5078326;27;51979;-59
2022/09/06 05:44:32;;;;;;;;;8.00;8.00;;;;;;;;5081793;27;52719;-57
2022/09/06 05:46:57;;;;;;;;;7.00;7.00;;;;;;;;5080912;27;51118;-58
2022/09/06 05:49:22;;;;;;;;;11.00;10.33;;;;;;;;5072797;27;51122;-59
2022/09/06 05:51:51;;;;;;;;;9.33;9.33;;;;;;;;5080396;27;51410;-58
2022/09/06 05:54:16;;;;;;;;;10.00;9.67;;;;;;;;5077941;27;52119;-59
2022/09/06 05:56:41;;;;;;;;;16.67;14.67;;;;;;;;5079314;27;50915;-60
2022/09/06 05:59:07;;;;;;;;;13.00;12.67;;;;;;;;5083752;27;51039;-58
2022/09/06 06:01:32;;;;;;;;;15.67;14.33;;;;;;;;5077303;27;50870;-59
2022/09/06 06:04:01;;;;;;;;;10.67;10.67;;;;;;;;5090780;27;51974;-59
2022/09/06 06:06:27;;;;;;;;;13.33;13.33;;;;;;;;5076687;27;51164;-58
2022/09/06 06:08:53;;;;;;;;;11.00;10.67;;;;;;;;5088529;27;51083;-59
2022/09/06 06:11:18;;;;;;;;;9.00;9.00;;;;;;;;5091914;27;51003;-59
2022/09/06 06:13:43;;;;;;;;;9.00;9.00;;;;;;;;5073675;27;51226;-58
2022/09/06 06:16:13;;;;;;;;;13.00;13.00;;;;;;;;5074946;27;51125;-58
2022/09/06 06:18:38;;;;;;;;;11.00;10.67;;;;;;;;5073248;27;50860;-58
2022/09/06 06:21:07;;;;;;;;;10.00;10.00;;;;;;;;5079334;27;50977;-58
2022/09/06 06:23:32;;;;;;;;;11.33;11.33;;;;;;;;5082660;27;51163;-57
2022/09/06 06:25:57;;;;;;;;;12.00;12.00;;;;;;;;5075799;27;51172;-58
2022/09/06 06:28:22;;;;;;;;;12.67;12.00;;;;;;;;5077144;27;51097;-58
2022/09/06 06:30:48;;;;;;;;;9.00;8.67;;;;;;;;5074113;27;51376;-58
2022/09/06 06:33:14;;;;;;;;;9.33;9.33;;;;;;;;5078291;27;51273;-58
2022/09/06 06:35:39;;;;;;;;;9.33;8.67;;;;;;;;5086517;27;51139;-58
2022/09/06 06:38:04;;;;;;;;;12.00;10.67;;;;;;;;5078783;27;51118;-58
2022/09/06 06:40:29;;;;;;;;;11.00;10.33;;;;;;;;5078503;27;51192;-58
2022/09/06 06:42:55;;;;;;;;;12.33;12.00;;;;;;;;5074993;27;51900;-58
2022/09/06 06:45:20;;;;;;;;;12.00;10.00;;;;;;;;5082262;27;51138;-57
2022/09/06 06:47:48;;;;;;;;;10.00;9.33;;;;;;;;5078441;27;51641;-57
2022/09/06 06:50:13;;;;;;;;;11.33;10.33;;;;;;;;5087457;27;51341;-59
2022/09/06 06:52:38;;;;;;;;;12.00;11.33;;;;;;;;5081764;27;51123;-59
2022/09/06 06:55:04;;;;;;;;;10.33;10.33;;;;;;;;5093518;27;51233;-58
2022/09/06 06:57:30;;;;;;;;;8.00;8.00;;;;;;;;5073793;27;51371;-58
2022/09/06 06:59:55;;;;;;;;;10.67;10.33;;;;;;;;5084349;27;51284;-58
2022/09/06 07:02:20;;;;;;;;;10.00;10.00;;;;;;;;5080383;27;51672;-59
2022/09/06 07:04:46;;;;;;;;;9.67;9.67;;;;;;;;5076791;27;51079;-59
2022/09/06 07:07:11;;;;;;;;;8.67;8.67;;;;;;;;5090544;27;51164;-54
2022/09/06 07:09:37;;;;;;;;;8.67;8.33;;;;;;;;5085381;27;51172;-53
2022/09/06 07:12:02;;;;;;;;;9.00;9.00;;;;;;;;5079902;27;52602;-54
2022/09/06 07:14:28;;;;;;;;;11.00;10.00;;;;;;;;5089234;27;51059;-69
2022/09/06 07:16:57;;;;;;;;;9.67;9.33;;;;;;;;5091209;27;51039;-68
2022/09/06 07:19:22;;;;;;;;;10.00;10.00;;;;;;;;5086475;27;51052;-67
2022/09/06 07:21:47;;;;;;;;;9.00;9.00;;;;;;;;5076359;27;51035;-67
2022/09/06 07:24:13;;;;;;;;;9.00;9.00;;;;;;;;5091925;27;51095;-66
2022/09/06 07:26:38;;;;;;;;;6.00;5.67;;;;;;;;5090618;27;51167;-65
2022/09/06 07:29:04;;;;;;;;;6.00;6.00;;;;;;;;5080454;27;51171;-65
2022/09/06 07:31:31;;;;;;;;;6.67;6.67;;;;;;;;5074990;27;51936;-64
2022/09/06 07:33:56;;;;;;;;;7.33;7.33;;;;;;;;5073023;27;51164;-65
2022/09/06 07:36:21;;;;;;;;;5.00;5.00;;;;;;;;5075899;27;51187;-64
2022/09/06 07:38:48;;;;;;;;;6.00;6.00;;;;;;;;5089187;27;50961;-65
2022/09/06 07:41:13;;;;;;;;;5.00;4.67;;;;;;;;5081119;27;52097;-63
2022/09/06 07:43:39;;;;;;;;;8.67;6.67;;;;;;;;5085256;27;51060;-51
2022/09/06 07:46:06;;;;;;;;;5.67;5.67;;;;;;;;5079250;27;51018;-51
2022/09/06 07:48:33;;;;;;;;;5.33;5.00;;;;;;;;5087767;27;51361;-52
2022/09/06 07:51:18;;;;;;;;;4.33;4.33;;;;;;;;5088102;27;53799;-52
2022/09/06 07:53:46;;;;;;;;;6.00;6.00;;;;;;;;5079289;27;50919;-52
2022/09/06 07:56:12;;;;;;;;;5.67;5.00;;;;;;;;5084259;27;51204;-49
2022/09/06 07:58:38;;;;;;;;;4.67;3.67;;;;;;;;5084412;27;51297;-52
2022/09/06 08:01:16;;;;;;;;;5.00;5.00;;;;;;;;5093599;27;52694;-53
2022/09/06 08:03:41;;;;;;;;;7.67;7.00;;;;;;;;5075544;27;51037;-50
2022/09/06 08:06:07;;;;;;;;;10.33;10.33;;;;;;;;5081909;27;51085;-50
2022/09/06 08:08:32;;;;;;;;;6.00;6.00;;;;;;;;5071924;27;50962;-49
2022/09/06 08:10:57;;;;;;;;;6.00;5.33;;;;;;;;5071635;28;51980;-52
2022/09/06 08:13:22;;;;;;;;;4.00;4.00;;;;;;;;5071004;27;51292;-53
2022/09/06 08:15:48;;;;;;;;;4.33;4.33;;;;;;;;5083647;27;51021;-50
2022/09/06 08:18:13;;;;;;;;;4.00;4.00;;;;;;;;5073373;27;51317;-54
2022/09/06 08:20:38;;;;;;;;;5.00;5.00;;;;;;;;5084869;27;53148;-52
2022/09/06 08:23:09;;;;;;;;;3.33;3.33;;;;;;;;5084549;27;50910;-52
2022/09/06 08:25:35;;;;;;;;;5.67;5.00;;;;;;;;5092191;27;51095;-55
2022/09/06 08:28:00;;;;;;;;;4.00;4.00;;;;;;;;5087809;27;51238;-51
2022/09/06 08:30:26;;;;;;;;;4.33;4.33;;;;;;;;5090139;27;52898;-48
2022/09/06 08:32:51;;;;;;;;;5.00;4.00;;;;;;;;5083239;27;50980;-52
2022/09/06 08:35:17;;;;;;;;;3.67;3.67;;;;;;;;5075302;27;51139;-52
2022/09/06 08:37:42;;;;;;;;;3.67;3.67;;;;;;;;5071863;27;51282;-48
2022/09/06 08:40:07;;;;;;;;;2.00;2.00;;;;;;;;5086424;27;51027;-48
2022/09/06 08:42:36;;;;;;;;;2.00;2.00;;;;;;;;5073780;27;51282;-47
2022/09/06 08:45:07;;;;;;;;;2.33;2.33;;;;;;;;5075982;27;51086;-53
2022/09/06 08:47:32;;;;;;;;;1.00;1.00;;;;;;;;5085889;27;51216;-53
2022/09/06 08:50:07;;;;;;;;;3.00;1.67;;;;;;;;5075899;27;51949;-50
2022/09/06 08:52:32;;;;;;;;;3.00;3.00;;;;;;;;5077820;27;50866;-50
2022/09/06 08:54:57;;;;;;;;;3.00;3.00;;;;;;;;5074608;27;51068;-51
2022/09/06 08:57:34;;;;;;;;;5.67;5.67;;;;;;;;5084896;27;51071;-48
2022/09/06 09:00:01;;;;;;;;;3.00;3.00;;;;;;;;5086009;27;51851;-51
2022/09/06 09:02:27;;;;;;;;;4.00;3.00;;;;;;;;5081975;27;51162;-51
2022/09/06 09:04:56;;;;;;;;;4.00;3.67;;;;;;;;5081945;27;50987;-50
2022/09/06 09:07:41;;;;;;;;;6.00;6.00;;;;;;;;5074693;27;50895;-51
2022/09/06 09:10:21;;;;;;;;;7.50;7.25;;;;;;;;5083137;27;52024;-52
2022/09/06 09:12:47;;;;;;;;;5.00;4.00;;;;;;;;5091394;27;50976;-51
2022/09/06 09:15:13;;;;;;;;;3.67;3.33;;;;;;;;5072959;27;51038;-50
2022/09/06 09:17:39;;;;;;;;;5.00;5.00;;;;;;;;5087189;27;51084;-50
2022/09/06 09:20:07;;;;;;;;;2.00;2.00;;;;;;;;5083975;27;51868;-51
2022/09/06 09:22:32;;;;;;;;;4.00;3.33;;;;;;;;5079138;27;50997;-49
2022/09/06 09:24:58;;;;;;;;;2.67;2.33;;;;;;;;5084150;27;51056;-52
2022/09/06 09:27:25;;;;;;;;;1.67;1.67;;;;;;;;5076200;27;51078;-48
2022/09/06 09:29:53;;;;;;;;;3.00;3.00;;;;;;;;5073556;27;52132;-51
2022/09/06 09:32:38;;;;;;;;;3.00;3.00;;;;;;;;5076711;27;51092;-52
2022/09/06 09:35:20;;;;;;;;;5.00;5.00;;;;;;;;5074752;27;51001;-50
2022/09/06 09:37:46;;;;;;;;;4.00;4.00;;;;;;;;5074019;27;51289;-52
2022/09/06 09:40:32;;;;;;;;;7.00;6.00;;;;;;;;5076068;27;52043;-48
2022/09/06 09:43:09;;;;;;;;;4.00;4.00;;;;;;;;5081394;27;51117;-50
2022/09/06 09:45:34;;;;;;;;;2.33;2.33;;;;;;;;5077184;27;51146;-50
2022/09/06 09:48:22;;;;;;;;;2.33;2.33;;;;;;;;5082107;27;51129;-51
2022/09/06 09:50:47;;;;;;;;;6.00;6.00;;;;;;;;5089417;27;52468;-52
2022/09/06 09:53:14;;;;;;;;;5.00;5.00;;;;;;;;5086478;27;51118;-51
2022/09/06 09:55:40;;;;;;;;;44.75;38.25;;;;;;;;5087126;27;51328;-52
2022/09/06 09:58:07;;;;;;;;;2.00;2.00;;;;;;;;5094550;27;50896;-51
2022/09/06 10:00:38;;;;;;;;;4.00;3.00;;;;;;;;5082453;27;52506;-53
2022/09/06 10:03:10;;;;;;;;;2.67;2.67;;;;;;;;5089020;27;51059;-49
2022/09/06 10:05:36;;;;;;;;;4.00;4.00;;;;;;;;5075663;27;51310;-49
2022/09/06 10:08:01;;;;;;;;;5.67;5.33;;;;;;;;5073506;28;50840;-52
2022/09/06 10:10:26;;;;;;;;;11.00;8.67;;;;;;;;5080321;27;51886;-51
2022/09/06 10:13:05;;;;;;;;;4.33;4.00;;;;;;;;5090197;27;51096;-51
2022/09/06 10:15:34;;;;;;;;;5.33;5.00;;;;;;;;5077733;27;51158;-50
2022/09/06 10:18:00;;;;;;;;;6.67;6.67;;;;;;;;5076866;27;51052;-52
2022/09/06 10:20:32;;;;;;;;;5.00;4.33;;;;;;;;5082590;27;51939;-52
2022/09/06 10:23:03;;;;;;;;;4.00;3.00;;;;;;;;5093577;27;51126;-50
2022/09/06 10:25:44;;;;;;;;;4.00;4.00;;;;;;;;5092683;27;50995;-51
2022/09/06 10:28:09;;;;;;;;;6.33;6.33;;;;;;;;5093487;27;51326;-47
2022/09/06 10:30:39;;;;;;;;;6.00;5.33;;;;;;;;5092208;27;52240;-50
2022/09/06 10:33:13;;;;;;;;;6.00;6.00;;;;;;;;5093150;27;51110;-49
2022/09/06 10:35:39;;;;;;;;;6.00;5.33;;;;;;;;5093700;27;51057;-52
2022/09/06 10:38:31;;;;;;;;;8.00;8.00;;;;;;;;5094101;27;51093;-52
2022/09/06 10:41:00;;;;;;;;;6.67;6.67;;;;;;;;5088935;27;51798;-55
2022/09/06 10:43:29;;;;;;;;;8.33;8.33;;;;;;;;5073330;27;50938;-49
2022/09/06 10:46:01;;;;;;;;;9.00;9.00;;;;;;;;5073184;27;51098;-51
2022/09/06 10:48:26;;;;;;;;;6.00;6.00;;;;;;;;5074045;27;50944;-49
2022/09/06 10:51:00;;;;;;;;;5.00;5.00;;;;;;;;5079840;27;51054;-48
2022/09/06 10:53:30;;;;;;;;;6.67;5.33;;;;;;;;5091831;27;50985;-50
2022/09/06 10:56:00;;;;;;;;;7.67;7.33;;;;;;;;5073173;27;51163;-51
2022/09/06 10:58:27;;;;;;;;;6.67;6.33;;;;;;;;5084561;27;51432;-49
2022/09/06 11:00:53;;;;;;;;;7.33;7.00;;;;;;;;5077622;27;51903;-47
2022/09/06 11:03:19;;;;;;;;;6.00;6.00;;;;;;;;5077354;27;51178;-49
2022/09/06 11:05:55;;;;;;;;;7.00;7.00;;;;;;;;5072519;27;51202;-50
2022/09/06 11:08:27;;;;;;;;;7.00;7.00;;;;;;;;5072637;28;50946;-51
2022/09/06 11:10:54;;;;;;;;;7.67;7.00;;;;;;;;5071874;27;51308;-52
2022/09/06 11:13:21;;;;;;;;;7.00;6.00;;;;;;;;5086873;27;51095;-50
2022/09/06 11:15:46;;;;;;;;;9.00;9.00;;;;;;;;5093136;27;50897;-51
2022/09/06 11:18:25;;;;;;;;;7.33;5.67;;;;;;;;5074835;27;50887;-48
2022/09/06 11:20:50;;;;;;;;;5.33;5.33;;;;;;;;5071007;28;50970;-50
2022/09/06 11:23:23;;;;;;;;;7.33;5.33;;;;;;;;5072700;27;51096;-50
2022/09/06 11:25:52;;;;;;;;;25.25;24.75;;;;;;;;5072548;27;50965;-51
2022/09/06 11:28:21;;;;;;;;;13.33;13.00;;;;;;;;5072752;27;51036;-48
2022/09/06 11:30:47;;;;;;;;;5.67;5.67;;;;;;;;5072967;27;51099;-49
2022/09/06 11:33:15;;;;;;;;;7.00;6.00;;;;;;;;5079583;27;51040;-52
2022/09/06 11:35:41;;;;;;;;;5.00;5.00;;;;;;;;5092629;27;50954;-50
2022/09/06 11:38:15;;;;;;;;;5.33;5.00;;;;;;;;5091518;27;51380;-49
2022/09/06 11:40:45;;;;;;;;;6.00;6.00;;;;;;;;5077552;27;51310;-51
2022/09/06 11:43:15;;;;;;;;;4.00;4.00;;;;;;;;5072040;27;51184;-50
2022/09/06 11:45:44;;;;;;;;;4.33;4.33;;;;;;;;5072053;27;51071;-51
2022/09/06 11:48:34;;;;;;;;;3.67;3.67;;;;;;;;5072344;27;51984;-51
2022/09/06 11:51:02;;;;;;;;;9.00;9.00;;;;;;;;5078734;27;52222;-50
2022/09/06 11:53:28;;;;;;;;;4.00;4.00;;;;;;;;5091964;27;51133;-47
2022/09/06 11:55:57;;;;;;;;;5.33;5.33;;;;;;;;5072554;27;51236;-49
2022/09/06 11:58:26;;;;;;;;;5.00;4.33;;;;;;;;5072278;28;51136;-56
2022/09/06 12:01:12;;;;;;;;;6.00;5.00;;;;;;;;5077260;27;51143;-51
2022/09/06 12:03:46;;;;;;;;;4.00;4.00;;;;;;;;5074842;27;51179;-49
2022/09/06 12:06:14;;;;;;;;;3.00;2.67;;;;;;;;5071801;27;51268;-51
2022/09/06 12:08:40;;;;;;;;;5.00;5.00;;;;;;;;5072414;27;51099;-50
2022/09/06 12:11:20;;;;;;;;;8.00;8.00;;;;;;;;5072076;27;51766;-48
2022/09/06 12:13:54;;;;;;;;;5.00;5.00;;;;;;;;5070862;27;51063;-47
2022/09/06 12:16:20;;;;;;;;;5.00;4.00;;;;;;;;5077876;27;51071;-50
2022/09/06 12:18:45;;;;;;;;;4.00;4.00;;;;;;;;5071631;27;51040;-50
2022/09/06 12:21:29;;;;;;;;;5.67;4.67;;;;;;;;5069746;27;51830;-49
2022/09/06 12:23:55;;;;;;;;;3.67;3.33;;;;;;;;5074062;27;50786;-48
2022/09/06 12:26:39;;;;;;;;;4.00;3.33;;;;;;;;5082411;27;51495;-50
2022/09/06 12:29:08;;;;;;;;;5.00;5.00;;;;;;;;5095427;27;50838;-49
2022/09/06 12:31:33;;;;;;;;;3.33;3.33;;;;;;;;5087662;27;52450;-49
2022/09/06 12:34:04;;;;;;;;;5.00;4.00;;;;;;;;5089080;27;51006;-47
2022/09/06 12:36:30;;;;;;;;;5.00;5.00;;;;;;;;5096051;27;50956;-53
2022/09/06 12:38:59;;;;;;;;;5.00;5.00;;;;;;;;5084349;27;50941;-50
2022/09/06 12:41:26;;;;;;;;;4.67;4.67;;;;;;;;5074903;27;51080;-50
2022/09/06 12:43:54;;;;;;;;;5.67;4.67;;;;;;;;5074432;27;52065;-53
2022/09/06 12:46:19;;;;;;;;;8.00;7.00;;;;;;;;5075090;28;50985;-51
2022/09/06 12:48:58;;;;;;;;;6.00;6.00;;;;;;;;5075670;27;51438;-51
2022/09/06 12:51:24;;;;;;;;;8.33;7.67;;;;;;;;5074143;27;52257;-49
2022/09/06 12:53:50;;;;;;;;;5.33;5.00;;;;;;;;5086577;27;51082;-48
2022/09/06 12:56:19;;;;;;;;;7.00;7.00;;;;;;;;5074771;27;51053;-50
2022/09/06 12:58:44;;;;;;;;;7.33;6.67;;;;;;;;5074603;27;51043;-51
2022/09/06 13:01:13;;;;;;;;;5.00;5.00;;;;;;;;5083434;27;50910;-48
2022/09/06 13:03:42;;;;;;;;;5.00;5.00;;;;;;;;5077836;27;51102;-50
2022/09/06 13:06:10;;;;;;;;;5.00;4.33;;;;;;;;5073262;28;51148;-49
2022/09/06 13:08:38;;;;;;;;;5.00;4.67;;;;;;;;5075029;27;51275;-47
2022/09/06 13:11:08;;;;;;;;;5.00;5.00;;;;;;;;5073420;27;52038;-49
2022/09/06 13:13:33;;;;;;;;;6.00;5.00;;;;;;;;5074247;27;50949;-50
2022/09/06 13:15:58;;;;;;;;;5.33;5.33;;;;;;;;5080010;27;51694;-50
2022/09/06 13:18:34;;;;;;;;;5.00;5.00;;;;;;;;5076517;27;51133;-50
2022/09/06 13:21:04;;;;;;;;;5.00;4.00;;;;;;;;5074684;27;52328;-51
2022/09/06 13:23:30;;;;;;;;;4.00;4.00;;;;;;;;5074880;27;51101;-50
2022/09/06 13:25:55;;;;;;;;;4.00;4.00;;;;;;;;5075563;27;51074;-49
2022/09/06 13:28:33;;;;;;;;;4.67;4.33;;;;;;;;5075998;27;50855;-49
2022/09/06 13:31:04;;;;;;;;;6.67;6.67;;;;;;;;5073620;27;51038;-52
2022/09/06 13:33:30;;;;;;;;;5.67;5.67;;;;;;;;5083665;27;50955;-47
2022/09/06 13:36:04;;;;;;;;;7.00;7.00;;;;;;;;5094794;27;51367;-47
2022/09/06 13:38:29;;;;;;;;;5.67;5.67;;;;;;;;5075097;27;51290;-51
2022/09/06 13:40:55;;;;;;;;;5.00;5.00;;;;;;;;5073682;27;51914;-50
2022/09/06 13:43:21;;;;;;;;;7.33;7.00;;;;;;;;5073944;27;51085;-49
2022/09/06 13:45:47;;;;;;;;;6.33;6.00;;;;;;;;5074182;27;50938;-48
2022/09/06 13:48:12;;;;;;;;;6.33;6.33;;;;;;;;5074515;27;51236;-52
2022/09/06 13:50:37;;;;;;;;;5.00;5.00;;;;;;;;5073700;28;52110;-50
2022/09/06 13:53:02;;;;;;;;;5.33;5.33;;;;;;;;5083985;27;51068;-48
2022/09/06 13:55:29;;;;;;;;;4.00;4.00;;;;;;;;5076512;27;51053;-52
2022/09/06 13:57:55;;;;;;;;;3.67;3.33;;;;;;;;5074287;28;51386;-53
2022/09/06 14:00:20;;;;;;;;;0.67;0.67;;;;;;;;5075538;27;51680;-51
2022/09/06 14:02:47;;;;;;;;;4.00;3.33;;;;;;;;5083369;27;50877;-48
2022/09/06 14:05:12;;;;;;;;;3.33;3.33;;;;;;;;5074902;27;51112;-47
2022/09/06 14:07:37;;;;;;;;;4.67;4.67;;;;;;;;5074571;28;51079;-49
2022/09/06 14:10:03;;;;;;;;;4.33;3.33;;;;;;;;5073586;27;52174;-50
2022/09/06 14:12:28;;;;;;;;;4.00;3.33;;;;;;;;5072077;28;51013;-49
2022/09/06 14:14:53;;;;;;;;;4.67;4.67;;;;;;;;5073435;28;51014;-51
2022/09/06 14:17:19;;;;;;;;;11.67;11.00;;;;;;;;5079610;27;51039;-48
2022/09/06 14:19:45;;;;;;;;;4.33;4.33;;;;;;;;5073534;27;50992;-49
2022/09/06 14:22:10;;;;;;;;;5.33;4.67;;;;;;;;5073647;27;51148;-51
2022/09/06 14:24:35;;;;;;;;;3.67;3.67;;;;;;;;5073479;27;51432;-52
2022/09/06 14:27:00;;;;;;;;;4.33;4.33;;;;;;;;5072999;27;51375;-49
2022/09/06 14:29:27;;;;;;;;;2.00;2.00;;;;;;;;5072800;27;52788;-52
2022/09/06 14:31:52;;;;;;;;;4.33;3.33;;;;;;;;5073067;27;51016;-49
2022/09/06 14:34:17;;;;;;;;;4.00;4.00;;;;;;;;5086691;27;51281;-50
2022/09/06 14:36:42;;;;;;;;;3.33;3.00;;;;;;;;5073165;27;51385;-53
2022/09/06 14:39:08;;;;;;;;;3.00;3.00;;;;;;;;5072944;27;51135;-53
2022/09/06 14:41:33;;;;;;;;;2.67;2.67;;;;;;;;5073173;27;50961;-51